My Little Violet — ZCPE7 — position and weather

sailwx.info

Track history (hours):
 
Tides and Currents Weather Stations Pressure Air Temp Water Temp Dewpoint Dewpoint Depression Visibility Wind Speed Wind Dir Waves Ship Positions

My Little Violet

Last reported at 2017-Jul-26 16:21 UTC. Time now 2017-Jul-26 16:52 UTC.
Position N 43°16' E 006°36'.

Length 45 m; draft 2.9 m.

Type: Pleasure craft. MMSI: 319496000.

Date/timePositionNaut miles runAvg speedWind from/ knotsBaromVisibWave heightAir tempDewpointWater temp
2017-Jul-26 16:21N 43°16' E 006°36'0 0.0
2017-Jul-26 15:57N 43°16' E 006°36'0 0.0
2017-Jul-26 14:45N 43°16' E 006°36'0 0.0
2017-Jul-25 21:14N 43°16' E 006°36'0 0.1
2017-Jul-25 20:59N 43°16' E 006°36'0 0.0
2017-Jul-24 02:18N 43°16' E 006°36'5 0.3
2017-Jul-23 12:27N 43°15' E 006°42'4 0.2
2017-Jul-22 20:21N 43°16' E 006°37'0 0.0
2017-Jul-22 20:00N 43°16' E 006°37'0 0.2
2017-Jul-22 18:37N 43°17' E 006°37'210.2
2017-Jul-22 18:27N 43°17' E 006°39'4 5.6
2017-Jul-22 17:45N 43°13' E 006°41'3 0.6
2017-Jul-22 12:09N 43°17' E 006°42'4 0.1
2017-Jul-21 05:15N 43°16' E 006°37'0 0.0
2017-Jul-21 04:57N 43°16' E 006°37'0 0.0
2017-Jul-21 04:12N 43°16' E 006°37'0 0.0
2017-Jul-20 21:15N 43°16' E 006°37'0 0.0
2017-Jul-20 21:00N 43°16' E 006°37'0 0.0
2017-Jul-20 19:27N 43°16' E 006°37'0 0.0
2017-Jul-20 19:00N 43°16' E 006°37'0 0.0
2017-Jul-20 18:30N 43°16' E 006°37'0 0.0
2017-Jul-20 18:00N 43°16' E 006°37'0 0.0
2017-Jul-20 17:24N 43°16' E 006°37'0 0.0
2017-Jul-20 16:57N 43°16' E 006°37'0 0.0
2017-Jul-20 16:30N 43°16' E 006°37'0 0.0
2017-Jul-20 16:00N 43°16' E 006°37'0 0.0
2017-Jul-20 15:30N 43°16' E 006°37'0 0.0
2017-Jul-20 15:00N 43°16' E 006°37'0 0.0
2017-Jul-20 12:51N 43°16' E 006°37'0 0.0
2017-Jul-20 08:52N 43°16' E 006°37'0 0.1
2017-Jul-20 08:30N 43°16' E 006°37'0 0.1
2017-Jul-20 07:58N 43°16' E 006°37'0 0.0
2017-Jul-20 07:30N 43°16' E 006°37'0 0.0
2017-Jul-20 07:00N 43°16' E 006°37'0 0.0
2017-Jul-20 06:30N 43°16' E 006°37'0 0.0
2017-Jul-20 06:00N 43°16' E 006°37'0 0.0
2017-Jul-20 05:30N 43°16' E 006°37'0 0.0
2017-Jul-20 05:00N 43°16' E 006°37'0 0.0
2017-Jul-20 04:30N 43°16' E 006°37'0 0.0
2017-Jul-20 04:00N 43°16' E 006°37'0 0.0
2017-Jul-20 03:30N 43°16' E 006°37'0 0.0
2017-Jul-20 02:55N 43°16' E 006°37'0 0.0
2017-Jul-20 02:30N 43°16' E 006°37'0 0.0
2017-Jul-20 01:01N 43°16' E 006°37'0 0.0
2017-Jul-20 00:59N 43°16' E 006°37'0 0.0
2017-Jul-20 00:29N 43°16' E 006°37'0 0.0
2017-Jul-20 00:00N 43°16' E 006°37'0 0.0
2017-Jul-19 23:30N 43°16' E 006°37'0 0.0
2017-Jul-19 23:00N 43°16' E 006°37'0 0.0
2017-Jul-19 22:29N 43°16' E 006°37'0 0.0
2017-Jul-19 22:00N 43°16' E 006°37'4 0.6
2017-Jul-19 16:03N 43°14' E 006°41'0 0.0
2017-Jul-19 16:00N 43°14' E 006°41'0 0.0
2017-Jul-19 15:30N 43°14' E 006°41'0 0.0
2017-Jul-19 14:36N 43°14' E 006°41'0 0.1
2017-Jul-19 14:31N 43°14' E 006°41'0 0.0
2017-Jul-19 13:57N 43°14' E 006°40'0 0.0
2017-Jul-19 13:02N 43°14' E 006°40'0 0.4
2017-Jul-19 13:00N 43°14' E 006°41'3 6.8
2017-Jul-19 12:30N 43°17' E 006°42'4 8.1
2017-Jul-19 12:00N 43°16' E 006°37'0 0.0
2017-Jul-19 11:28N 43°16' E 006°37'0 0.0
2017-Jul-19 10:56N 43°16' E 006°37'0 0.0
2017-Jul-19 10:30N 43°16' E 006°37'0 0.0
2017-Jul-19 10:00N 43°16' E 006°37'0 0.0
2017-Jul-19 09:19N 43°16' E 006°37'0 0.0
2017-Jul-19 07:23N 43°16' E 006°37'0 0.0
2017-Jul-19 06:57N 43°16' E 006°37'0 0.0
2017-Jul-19 06:03N 43°16' E 006°37'0 0.0
2017-Jul-19 05:58N 43°16' E 006°37'0 0.0
2017-Jul-19 05:30N 43°16' E 006°37'0 0.0
2017-Jul-19 04:35N 43°16' E 006°37'0 0.0
2017-Jul-18 21:18N 43°16' E 006°37'0 0.0
2017-Jul-18 21:00N 43°16' E 006°37'0 0.0
2017-Jul-18 20:30N 43°16' E 006°37'2 3.3
2017-Jul-18 20:00N 43°17' E 006°39'714.2
2017-Jul-18 19:30N 43°16' E 006°48'7 1.0
2017-Jul-18 12:55N 43°13' E 006°40'4 0.7
2017-Jul-18 06:57N 43°16' E 006°37'0 0.0
2017-Jul-18 06:27N 43°16' E 006°37'0 0.0
2017-Jul-18 04:50N 43°16' E 006°37'0 0.0
2017-Jul-17 19:44N 43°16' E 006°37'0 0.1
2017-Jul-17 19:24N 43°16' E 006°37'0 0.0
2017-Jul-17 17:57N 43°16' E 006°37'2 5.3
2017-Jul-17 17:30N 43°17' E 006°40'3 6.2
2017-Jul-17 17:01N 43°14' E 006°41'4 0.3
2017-Jul-17 05:47N 43°16' E 006°37'0 0.0
2017-Jul-16 20:36N 43°16' E 006°37'0 0.0
2017-Jul-16 20:28N 43°16' E 006°37'0 0.0
2017-Jul-16 20:00N 43°16' E 006°37'  
Track history (hours):
 
Tides and Currents Weather Stations Pressure Air Temp Water Temp Dewpoint Dewpoint Depression Visibility Wind Speed Wind Dir Waves Ship Positions

My Little Violet

Last reported at 2017-Jul-26 16:21 UTC. Time now 2017-Jul-26 16:52 UTC.
Position N 43°16' E 006°36'.

Length 45 m; draft 2.9 m.

Type: Pleasure craft. MMSI: 319496000.

Date/timePositionNaut miles runAvg speedWind from/ knotsBaromVisibWave heightAir tempDewpointWater temp
2017-Jul-26 16:21N 43°16' E 006°36'0 0.0
2017-Jul-26 15:57N 43°16' E 006°36'0 0.0
2017-Jul-26 14:45N 43°16' E 006°36'0 0.0
2017-Jul-25 21:14N 43°16' E 006°36'0 0.1
2017-Jul-25 20:59N 43°16' E 006°36'0 0.0
2017-Jul-24 02:18N 43°16' E 006°36'5 0.3
2017-Jul-23 12:27N 43°15' E 006°42'4 0.2
2017-Jul-22 20:21N 43°16' E 006°37'0 0.0
2017-Jul-22 20:00N 43°16' E 006°37'0 0.2
2017-Jul-22 18:37N 43°17' E 006°37'210.2
2017-Jul-22 18:27N 43°17' E 006°39'4 5.6
2017-Jul-22 17:45N 43°13' E 006°41'3 0.6
2017-Jul-22 12:09N 43°17' E 006°42'4 0.1
2017-Jul-21 05:15N 43°16' E 006°37'0 0.0
2017-Jul-21 04:57N 43°16' E 006°37'0 0.0
2017-Jul-21 04:12N 43°16' E 006°37'0 0.0
2017-Jul-20 21:15N 43°16' E 006°37'0 0.0
2017-Jul-20 21:00N 43°16' E 006°37'0 0.0
2017-Jul-20 19:27N 43°16' E 006°37'0 0.0
2017-Jul-20 19:00N 43°16' E 006°37'0 0.0
2017-Jul-20 18:30N 43°16' E 006°37'0 0.0
2017-Jul-20 18:00N 43°16' E 006°37'0 0.0
2017-Jul-20 17:24N 43°16' E 006°37'0 0.0
2017-Jul-20 16:57N 43°16' E 006°37'0 0.0
2017-Jul-20 16:30N 43°16' E 006°37'0 0.0
2017-Jul-20 16:00N 43°16' E 006°37'0 0.0
2017-Jul-20 15:30N 43°16' E 006°37'0 0.0
2017-Jul-20 15:00N 43°16' E 006°37'0 0.0
2017-Jul-20 12:51N 43°16' E 006°37'0 0.0
2017-Jul-20 08:52N 43°16' E 006°37'0 0.1
2017-Jul-20 08:30N 43°16' E 006°37'0 0.1
2017-Jul-20 07:58N 43°16' E 006°37'0 0.0
2017-Jul-20 07:30N 43°16' E 006°37'0 0.0
2017-Jul-20 07:00N 43°16' E 006°37'0 0.0
2017-Jul-20 06:30N 43°16' E 006°37'0 0.0
2017-Jul-20 06:00N 43°16' E 006°37'0 0.0
2017-Jul-20 05:30N 43°16' E 006°37'0 0.0
2017-Jul-20 05:00N 43°16' E 006°37'0 0.0
2017-Jul-20 04:30N 43°16' E 006°37'0 0.0
2017-Jul-20 04:00N 43°16' E 006°37'0 0.0
2017-Jul-20 03:30N 43°16' E 006°37'0 0.0
2017-Jul-20 02:55N 43°16' E 006°37'0 0.0
2017-Jul-20 02:30N 43°16' E 006°37'0 0.0
2017-Jul-20 01:01N 43°16' E 006°37'0 0.0
2017-Jul-20 00:59N 43°16' E 006°37'0 0.0
2017-Jul-20 00:29N 43°16' E 006°37'0 0.0
2017-Jul-20 00:00N 43°16' E 006°37'0 0.0
2017-Jul-19 23:30N 43°16' E 006°37'0 0.0
2017-Jul-19 23:00N 43°16' E 006°37'0 0.0
2017-Jul-19 22:29N 43°16' E 006°37'0 0.0
2017-Jul-19 22:00N 43°16' E 006°37'4 0.6
2017-Jul-19 16:03N 43°14' E 006°41'0 0.0
2017-Jul-19 16:00N 43°14' E 006°41'0 0.0
2017-Jul-19 15:30N 43°14' E 006°41'0 0.0
2017-Jul-19 14:36N 43°14' E 006°41'0 0.1
2017-Jul-19 14:31N 43°14' E 006°41'0 0.0
2017-Jul-19 13:57N 43°14' E 006°40'0 0.0
2017-Jul-19 13:02N 43°14' E 006°40'0 0.4
2017-Jul-19 13:00N 43°14' E 006°41'3 6.8
2017-Jul-19 12:30N 43°17' E 006°42'4 8.1
2017-Jul-19 12:00N 43°16' E 006°37'0 0.0
2017-Jul-19 11:28N 43°16' E 006°37'0 0.0
2017-Jul-19 10:56N 43°16' E 006°37'0 0.0
2017-Jul-19 10:30N 43°16' E 006°37'0 0.0
2017-Jul-19 10:00N 43°16' E 006°37'0 0.0
2017-Jul-19 09:19N 43°16' E 006°37'0 0.0
2017-Jul-19 07:23N 43°16' E 006°37'0 0.0
2017-Jul-19 06:57N 43°16' E 006°37'0 0.0
2017-Jul-19 06:03N 43°16' E 006°37'0 0.0
2017-Jul-19 05:58N 43°16' E 006°37'0 0.0
2017-Jul-19 05:30N 43°16' E 006°37'0 0.0
2017-Jul-19 04:35N 43°16' E 006°37'0 0.0
2017-Jul-18 21:18N 43°16' E 006°37'0 0.0
2017-Jul-18 21:00N 43°16' E 006°37'0 0.0
2017-Jul-18 20:30N 43°16' E 006°37'2 3.3
2017-Jul-18 20:00N 43°17' E 006°39'714.2
2017-Jul-18 19:30N 43°16' E 006°48'7 1.0
2017-Jul-18 12:55N 43°13' E 006°40'4 0.7
2017-Jul-18 06:57N 43°16' E 006°37'0 0.0
2017-Jul-18 06:27N 43°16' E 006°37'0 0.0
2017-Jul-18 04:50N 43°16' E 006°37'0 0.0
2017-Jul-17 19:44N 43°16' E 006°37'0 0.1
2017-Jul-17 19:24N 43°16' E 006°37'0 0.0
2017-Jul-17 17:57N 43°16' E 006°37'2 5.3
2017-Jul-17 17:30N 43°17' E 006°40'3 6.2
2017-Jul-17 17:01N 43°14' E 006°41'4 0.3
2017-Jul-17 05:47N 43°16' E 006°37'0 0.0
2017-Jul-16 20:36N 43°16' E 006°37'0 0.0
2017-Jul-16 20:28N 43°16' E 006°37'0 0.0
2017-Jul-16 20:00N 43°16' E 006°37'  

Dump ship's entire track history